sensor_id;sensor_type;location;lat;lon;timestamp;temperature;humidity
9762;DHT22;4920;49.594;11.022;2022-12-07T00:01:42;3.50;99.90
9762;DHT22;4920;49.594;11.022;2022-12-07T00:04:16;3.50;99.90
9762;DHT22;4920;49.594;11.022;2022-12-07T00:06:46;3.60;99.90
9762;DHT22;4920;49.594;11.022;2022-12-07T00:09:16;3.50;99.90
9762;DHT22;4920;49.594;11.022;2022-12-07T00:11:49;3.50;99.90
9762;DHT22;4920;49.594;11.022;2022-12-07T00:14:18;3.50;99.90
9762;DHT22;4920;49.594;11.022;2022-12-07T00:16:49;3.50;99.90
9762;DHT22;4920;49.594;11.022;2022-12-07T00:19:20;3.40;99.90
9762;DHT22;4920;49.594;11.022;2022-12-07T00:21:49;3.40;99.90
9762;DHT22;4920;49.594;11.022;2022-12-07T00:24:17;3.40;99.90
9762;DHT22;4920;49.594;11.022;2022-12-07T00:26:46;3.40;99.90
9762;DHT22;4920;49.594;11.022;2022-12-07T00:29:17;3.40;99.90
9762;DHT22;4920;49.594;11.022;2022-12-07T00:31:46;3.40;99.90
9762;DHT22;4920;49.594;11.022;2022-12-07T00:34:17;3.40;99.90
9762;DHT22;4920;49.594;11.022;2022-12-07T00:36:49;3.40;99.90
9762;DHT22;4920;49.594;11.022;2022-12-07T00:39:18;3.40;99.90
9762;DHT22;4920;49.594;11.022;2022-12-07T00:41:46;3.40;99.90
9762;DHT22;4920;49.594;11.022;2022-12-07T00:44:15;3.40;99.90
9762;DHT22;4920;49.594;11.022;2022-12-07T00:46:44;3.40;99.90
9762;DHT22;4920;49.594;11.022;2022-12-07T00:49:13;3.40;99.90
9762;DHT22;4920;49.594;11.022;2022-12-07T00:51:42;3.40;99.90
9762;DHT22;4920;49.594;11.022;2022-12-07T00:54:12;3.40;99.90
9762;DHT22;4920;49.594;11.022;2022-12-07T00:56:41;3.40;99.90
9762;DHT22;4920;49.594;11.022;2022-12-07T00:59:12;3.30;99.90
9762;DHT22;4920;49.594;11.022;2022-12-07T01:01:41;3.40;99.90
9762;DHT22;4920;49.594;11.022;2022-12-07T01:04:10;3.30;99.90
9762;DHT22;4920;49.594;11.022;2022-12-07T01:06:39;3.30;99.90
9762;DHT22;4920;49.594;11.022;2022-12-07T01:09:08;3.30;99.90
9762;DHT22;4920;49.594;11.022;2022-12-07T01:11:38;3.30;99.90
9762;DHT22;4920;49.594;11.022;2022-12-07T01:14:08;3.30;99.90
9762;DHT22;4920;49.594;11.022;2022-12-07T01:16:38;3.30;99.90
9762;DHT22;4920;49.594;11.022;2022-12-07T01:19:07;3.30;99.90
9762;DHT22;4920;49.594;11.022;2022-12-07T01:21:36;3.30;99.90
9762;DHT22;4920;49.594;11.022;2022-12-07T01:24:07;3.30;99.90
9762;DHT22;4920;49.594;11.022;2022-12-07T01:26:38;3.30;99.90
9762;DHT22;4920;49.594;11.022;2022-12-07T01:29:08;3.30;99.90
9762;DHT22;4920;49.594;11.022;2022-12-07T01:31:36;3.30;99.90
9762;DHT22;4920;49.594;11.022;2022-12-07T01:34:05;3.30;99.90
9762;DHT22;4920;49.594;11.022;2022-12-07T01:36:35;3.30;99.90
9762;DHT22;4920;49.594;11.022;2022-12-07T01:39:06;3.30;99.90
9762;DHT22;4920;49.594;11.022;2022-12-07T01:41:38;3.20;99.90
9762;DHT22;4920;49.594;11.022;2022-12-07T01:44:17;3.30;99.90
9762;DHT22;4920;49.594;11.022;2022-12-07T01:46:47;3.20;99.90
9762;DHT22;4920;49.594;11.022;2022-12-07T01:49:21;3.20;99.90
9762;DHT22;4920;49.594;11.022;2022-12-07T01:51:54;3.20;99.90
9762;DHT22;4920;49.594;11.022;2022-12-07T01:54:24;3.20;99.90
9762;DHT22;4920;49.594;11.022;2022-12-07T01:56:56;3.20;99.90
9762;DHT22;4920;49.594;11.022;2022-12-07T01:59:25;3.20;99.90
9762;DHT22;4920;49.594;11.022;2022-12-07T02:01:55;3.20;99.90
9762;DHT22;4920;49.594;11.022;2022-12-07T02:04:24;3.30;99.90
9762;DHT22;4920;49.594;11.022;2022-12-07T02:06:53;3.30;99.90
9762;DHT22;4920;49.594;11.022;2022-12-07T02:09:23;3.30;99.90
9762;DHT22;4920;49.594;11.022;2022-12-07T02:11:52;3.30;99.90
9762;DHT22;4920;49.594;11.022;2022-12-07T02:14:23;3.30;99.90
9762;DHT22;4920;49.594;11.022;2022-12-07T02:17:02;3.20;99.90
9762;DHT22;4920;49.594;11.022;2022-12-07T02:20:03;3.20;99.90
9762;DHT22;4920;49.594;11.022;2022-12-07T02:25:56;3.20;99.90
9762;DHT22;4920;49.594;11.022;2022-12-07T02:28:29;3.20;99.90
9762;DHT22;4920;49.594;11.022;2022-12-07T02:31:05;3.20;99.90
9762;DHT22;4920;49.594;11.022;2022-12-07T02:33:37;3.20;99.90
9762;DHT22;4920;49.594;11.022;2022-12-07T02:36:12;3.10;99.90
9762;DHT22;4920;49.594;11.022;2022-12-07T02:38:51;3.10;99.90
9762;DHT22;4920;49.594;11.022;2022-12-07T02:41:27;3.00;99.90
9762;DHT22;4920;49.594;11.022;2022-12-07T02:44:00;3.00;99.90
9762;DHT22;4920;49.594;11.022;2022-12-07T02:46:34;2.90;99.90
9762;DHT22;4920;49.594;11.022;2022-12-07T02:49:05;2.80;99.90
9762;DHT22;4920;49.594;11.022;2022-12-07T02:51:39;2.70;99.90
9762;DHT22;4920;49.594;11.022;2022-12-07T02:54:11;2.70;99.90
9762;DHT22;4920;49.594;11.022;2022-12-07T02:56:46;2.70;99.90
9762;DHT22;4920;49.594;11.022;2022-12-07T02:59:27;2.60;99.90
9762;DHT22;4920;49.594;11.022;2022-12-07T03:02:06;2.60;99.90
9762;DHT22;4920;49.594;11.022;2022-12-07T03:04:45;2.60;99.90
9762;DHT22;4920;49.594;11.022;2022-12-07T03:07:24;2.60;99.90
9762;DHT22;4920;49.594;11.022;2022-12-07T03:10:00;2.60;99.90
9762;DHT22;4920;49.594;11.022;2022-12-07T03:12:34;2.60;99.90
9762;DHT22;4920;49.594;11.022;2022-12-07T03:15:07;2.60;99.90
9762;DHT22;4920;49.594;11.022;2022-12-07T03:17:41;2.60;99.90
9762;DHT22;4920;49.594;11.022;2022-12-07T03:20:13;2.60;99.90
9762;DHT22;4920;49.594;11.022;2022-12-07T03:22:44;2.70;99.90
9762;DHT22;4920;49.594;11.022;2022-12-07T03:25:16;2.70;99.90
9762;DHT22;4920;49.594;11.022;2022-12-07T03:27:49;2.80;99.90
9762;DHT22;4920;49.594;11.022;2022-12-07T03:30:22;2.80;99.90
9762;DHT22;4920;49.594;11.022;2022-12-07T03:32:58;2.80;99.90
9762;DHT22;4920;49.594;11.022;2022-12-07T03:35:31;2.70;99.90
9762;DHT22;4920;49.594;11.022;2022-12-07T03:38:08;2.70;99.90
9762;DHT22;4920;49.594;11.022;2022-12-07T03:40:44;2.50;99.90
9762;DHT22;4920;49.594;11.022;2022-12-07T03:43:18;2.40;99.90
9762;DHT22;4920;49.594;11.022;2022-12-07T03:46:01;2.20;99.90
9762;DHT22;4920;49.594;11.022;2022-12-07T03:48:37;2.10;99.90
9762;DHT22;4920;49.594;11.022;2022-12-07T03:51:10;2.10;99.90
9762;DHT22;4920;49.594;11.022;2022-12-07T03:53:44;2.00;99.90
9762;DHT22;4920;49.594;11.022;2022-12-07T03:56:15;1.90;99.90
9762;DHT22;4920;49.594;11.022;2022-12-07T03:58:44;1.80;99.90
9762;DHT22;4920;49.594;11.022;2022-12-07T04:01:12;1.80;99.90
9762;DHT22;4920;49.594;11.022;2022-12-07T04:03:42;1.80;99.90
9762;DHT22;4920;49.594;11.022;2022-12-07T04:06:11;1.80;99.90
9762;DHT22;4920;49.594;11.022;2022-12-07T04:08:40;1.80;99.90
9762;DHT22;4920;49.594;11.022;2022-12-07T04:11:09;1.90;99.90
9762;DHT22;4920;49.594;11.022;2022-12-07T04:13:37;1.90;99.90
9762;DHT22;4920;49.594;11.022;2022-12-07T04:16:20;2.00;99.90
9762;DHT22;4920;49.594;11.022;2022-12-07T04:18:50;2.00;99.90
9762;DHT22;4920;49.594;11.022;2022-12-07T04:21:19;2.10;99.90
9762;DHT22;4920;49.594;11.022;2022-12-07T04:23:47;2.10;99.90
9762;DHT22;4920;49.594;11.022;2022-12-07T04:26:16;2.20;99.90
9762;DHT22;4920;49.594;11.022;2022-12-07T04:28:45;2.30;99.90
9762;DHT22;4920;49.594;11.022;2022-12-07T04:31:14;2.30;99.90
9762;DHT22;4920;49.594;11.022;2022-12-07T04:33:42;2.30;99.90
9762;DHT22;4920;49.594;11.022;2022-12-07T04:36:12;2.30;99.90
9762;DHT22;4920;49.594;11.022;2022-12-07T04:38:41;2.40;99.90
9762;DHT22;4920;49.594;11.022;2022-12-07T04:41:10;2.40;99.90
9762;DHT22;4920;49.594;11.022;2022-12-07T04:43:39;2.40;99.90
9762;DHT22;4920;49.594;11.022;2022-12-07T04:46:07;2.50;99.90
9762;DHT22;4920;49.594;11.022;2022-12-07T04:48:36;2.50;99.90
9762;DHT22;4920;49.594;11.022;2022-12-07T04:51:05;2.50;99.90
9762;DHT22;4920;49.594;11.022;2022-12-07T04:53:35;2.60;99.90
9762;DHT22;4920;49.594;11.022;2022-12-07T04:56:04;2.50;99.90
9762;DHT22;4920;49.594;11.022;2022-12-07T04:58:35;2.60;99.90
9762;DHT22;4920;49.594;11.022;2022-12-07T05:01:04;2.60;99.90
9762;DHT22;4920;49.594;11.022;2022-12-07T05:03:33;2.60;99.90
9762;DHT22;4920;49.594;11.022;2022-12-07T05:06:01;2.70;99.90
9762;DHT22;4920;49.594;11.022;2022-12-07T05:08:38;2.70;99.90
9762;DHT22;4920;49.594;11.022;2022-12-07T05:11:07;2.70;99.90
9762;DHT22;4920;49.594;11.022;2022-12-07T05:13:36;2.70;99.90
9762;DHT22;4920;49.594;11.022;2022-12-07T05:16:05;2.80;99.90
9762;DHT22;4920;49.594;11.022;2022-12-07T05:18:34;2.80;99.90
9762;DHT22;4920;49.594;11.022;2022-12-07T05:21:03;2.80;99.90
9762;DHT22;4920;49.594;11.022;2022-12-07T05:23:32;2.80;99.90
9762;DHT22;4920;49.594;11.022;2022-12-07T05:26:02;2.80;99.90
9762;DHT22;4920;49.594;11.022;2022-12-07T05:28:30;2.80;99.90
9762;DHT22;4920;49.594;11.022;2022-12-07T05:30:59;2.90;99.90
9762;DHT22;4920;49.594;11.022;2022-12-07T05:33:28;2.90;99.90
9762;DHT22;4920;49.594;11.022;2022-12-07T05:35:56;2.90;99.90
9762;DHT22;4920;49.594;11.022;2022-12-07T05:38:25;2.90;99.90
9762;DHT22;4920;49.594;11.022;2022-12-07T05:40:54;2.90;99.90
9762;DHT22;4920;49.594;11.022;2022-12-07T05:43:24;2.90;99.90
9762;DHT22;4920;49.594;11.022;2022-12-07T05:45:53;2.90;99.90
9762;DHT22;4920;49.594;11.022;2022-12-07T05:48:21;2.90;99.90
9762;DHT22;4920;49.594;11.022;2022-12-07T05:50:51;2.90;99.90
9762;DHT22;4920;49.594;11.022;2022-12-07T05:53:20;2.90;99.90
9762;DHT22;4920;49.594;11.022;2022-12-07T05:55:49;2.90;99.90
9762;DHT22;4920;49.594;11.022;2022-12-07T05:58:18;2.90;99.90
9762;DHT22;4920;49.594;11.022;2022-12-07T06:01:05;2.90;99.90
9762;DHT22;4920;49.594;11.022;2022-12-07T06:03:33;2.90;99.90
9762;DHT22;4920;49.594;11.022;2022-12-07T06:06:03;2.90;99.90
9762;DHT22;4920;49.594;11.022;2022-12-07T06:08:32;2.90;99.90
9762;DHT22;4920;49.594;11.022;2022-12-07T06:11:00;3.00;99.90
9762;DHT22;4920;49.594;11.022;2022-12-07T06:13:46;3.00;99.90
9762;DHT22;4920;49.594;11.022;2022-12-07T06:16:17;3.00;99.90
9762;DHT22;4920;49.594;11.022;2022-12-07T06:18:45;3.00;99.90
9762;DHT22;4920;49.594;11.022;2022-12-07T06:21:14;3.00;99.90
9762;DHT22;4920;49.594;11.022;2022-12-07T06:23:43;3.10;99.90
9762;DHT22;4920;49.594;11.022;2022-12-07T06:26:11;3.10;99.90
9762;DHT22;4920;49.594;11.022;2022-12-07T06:28:40;3.10;99.90
9762;DHT22;4920;49.594;11.022;2022-12-07T06:31:09;3.10;99.90
9762;DHT22;4920;49.594;11.022;2022-12-07T06:33:42;3.10;99.90
9762;DHT22;4920;49.594;11.022;2022-12-07T06:36:11;3.10;99.90
9762;DHT22;4920;49.594;11.022;2022-12-07T06:38:40;3.10;99.90
9762;DHT22;4920;49.594;11.022;2022-12-07T06:41:08;3.10;99.90
9762;DHT22;4920;49.594;11.022;2022-12-07T06:43:37;3.10;99.90
9762;DHT22;4920;49.594;11.022;2022-12-07T06:46:06;3.10;99.90
9762;DHT22;4920;49.594;11.022;2022-12-07T06:48:34;3.10;99.90
9762;DHT22;4920;49.594;11.022;2022-12-07T06:51:05;3.20;99.90
9762;DHT22;4920;49.594;11.022;2022-12-07T06:53:34;3.10;99.90
9762;DHT22;4920;49.594;11.022;2022-12-07T06:56:07;3.10;99.90
9762;DHT22;4920;49.594;11.022;2022-12-07T06:58:36;3.10;99.90
9762;DHT22;4920;49.594;11.022;2022-12-07T07:01:09;3.20;99.90
9762;DHT22;4920;49.594;11.022;2022-12-07T07:03:38;3.20;99.90
9762;DHT22;4920;49.594;11.022;2022-12-07T07:06:09;3.20;99.90
9762;DHT22;4920;49.594;11.022;2022-12-07T07:08:38;3.20;99.90
9762;DHT22;4920;49.594;11.022;2022-12-07T07:11:08;3.20;99.90
9762;DHT22;4920;49.594;11.022;2022-12-07T07:13:37;3.30;99.90
9762;DHT22;4920;49.594;11.022;2022-12-07T07:16:07;3.30;99.90
9762;DHT22;4920;49.594;11.022;2022-12-07T07:18:36;3.30;99.90
9762;DHT22;4920;49.594;11.022;2022-12-07T07:21:05;3.40;99.90
9762;DHT22;4920;49.594;11.022;2022-12-07T07:23:35;3.40;99.90
9762;DHT22;4920;49.594;11.022;2022-12-07T07:26:04;3.40;99.90
9762;DHT22;4920;49.594;11.022;2022-12-07T07:28:33;3.40;99.90
9762;DHT22;4920;49.594;11.022;2022-12-07T07:31:02;3.50;99.90
9762;DHT22;4920;49.594;11.022;2022-12-07T07:33:31;3.50;99.90
9762;DHT22;4920;49.594;11.022;2022-12-07T07:36:00;3.50;99.90
9762;DHT22;4920;49.594;11.022;2022-12-07T07:38:29;3.50;99.90
9762;DHT22;4920;49.594;11.022;2022-12-07T07:40:59;3.60;99.90
9762;DHT22;4920;49.594;11.022;2022-12-07T07:43:28;3.60;99.90
9762;DHT22;4920;49.594;11.022;2022-12-07T07:45:59;3.60;99.90
9762;DHT22;4920;49.594;11.022;2022-12-07T07:48:28;3.70;99.90
9762;DHT22;4920;49.594;11.022;2022-12-07T07:50:57;3.70;99.90
9762;DHT22;4920;49.594;11.022;2022-12-07T07:53:26;3.70;99.90
9762;DHT22;4920;49.594;11.022;2022-12-07T07:55:55;3.70;99.90
9762;DHT22;4920;49.594;11.022;2022-12-07T07:58:25;3.80;99.90
9762;DHT22;4920;49.594;11.022;2022-12-07T08:00:53;3.80;99.90
9762;DHT22;4920;49.594;11.022;2022-12-07T08:03:22;3.80;99.90
9762;DHT22;4920;49.594;11.022;2022-12-07T08:05:51;3.80;99.90
9762;DHT22;4920;49.594;11.022;2022-12-07T08:08:20;3.70;99.90
9762;DHT22;4920;49.594;11.022;2022-12-07T08:10:49;3.70;99.90
9762;DHT22;4920;49.594;11.022;2022-12-07T08:13:18;3.80;99.90
9762;DHT22;4920;49.594;11.022;2022-12-07T08:15:55;3.80;99.90
9762;DHT22;4920;49.594;11.022;2022-12-07T08:18:23;3.80;99.90
9762;DHT22;4920;49.594;11.022;2022-12-07T08:20:58;3.70;99.90
9762;DHT22;4920;49.594;11.022;2022-12-07T08:23:28;3.80;99.90
9762;DHT22;4920;49.594;11.022;2022-12-07T08:26:07;3.80;99.90
9762;DHT22;4920;49.594;11.022;2022-12-07T08:28:36;3.80;99.90
9762;DHT22;4920;49.594;11.022;2022-12-07T08:31:09;3.80;99.90
9762;DHT22;4920;49.594;11.022;2022-12-07T08:33:39;3.90;99.90
9762;DHT22;4920;49.594;11.022;2022-12-07T08:36:09;3.90;99.90
9762;DHT22;4920;49.594;11.022;2022-12-07T08:38:40;3.90;99.90
9762;DHT22;4920;49.594;11.022;2022-12-07T08:41:22;4.00;99.90
9762;DHT22;4920;49.594;11.022;2022-12-07T08:43:51;3.90;99.90
9762;DHT22;4920;49.594;11.022;2022-12-07T08:46:25;4.00;99.90
9762;DHT22;4920;49.594;11.022;2022-12-07T08:48:58;4.10;99.90
9762;DHT22;4920;49.594;11.022;2022-12-07T08:51:28;4.00;99.90
9762;DHT22;4920;49.594;11.022;2022-12-07T08:53:58;4.00;99.90
9762;DHT22;4920;49.594;11.022;2022-12-07T08:56:28;4.00;99.90
9762;DHT22;4920;49.594;11.022;2022-12-07T08:58:58;4.00;99.90
9762;DHT22;4920;49.594;11.022;2022-12-07T09:01:28;4.00;99.90
9762;DHT22;4920;49.594;11.022;2022-12-07T09:03:57;4.00;99.90
9762;DHT22;4920;49.594;11.022;2022-12-07T09:06:26;4.10;99.90
9762;DHT22;4920;49.594;11.022;2022-12-07T09:08:58;4.10;99.90
9762;DHT22;4920;49.594;11.022;2022-12-07T09:11:28;4.10;99.90
9762;DHT22;4920;49.594;11.022;2022-12-07T09:13:57;4.20;99.90
9762;DHT22;4920;49.594;11.022;2022-12-07T09:16:25;4.20;99.90
9762;DHT22;4920;49.594;11.022;2022-12-07T09:18:56;4.20;99.90
9762;DHT22;4920;49.594;11.022;2022-12-07T09:21:24;4.20;99.90
9762;DHT22;4920;49.594;11.022;2022-12-07T09:23:53;4.20;99.90
9762;DHT22;4920;49.594;11.022;2022-12-07T09:26:22;4.20;99.90
9762;DHT22;4920;49.594;11.022;2022-12-07T09:28:50;4.20;99.90
9762;DHT22;4920;49.594;11.022;2022-12-07T09:31:19;4.20;99.90
9762;DHT22;4920;49.594;11.022;2022-12-07T09:33:55;4.20;99.90
9762;DHT22;4920;49.594;11.022;2022-12-07T09:36:25;4.20;99.90
9762;DHT22;4920;49.594;11.022;2022-12-07T09:38:54;4.30;99.90
9762;DHT22;4920;49.594;11.022;2022-12-07T09:41:24;4.20;99.90
9762;DHT22;4920;49.594;11.022;2022-12-07T09:43:59;4.20;99.90
9762;DHT22;4920;49.594;11.022;2022-12-07T09:46:34;4.30;99.90
9762;DHT22;4920;49.594;11.022;2022-12-07T09:49:05;4.30;99.90
9762;DHT22;4920;49.594;11.022;2022-12-07T09:51:38;4.30;99.90
9762;DHT22;4920;49.594;11.022;2022-12-07T09:54:09;4.40;99.90
9762;DHT22;4920;49.594;11.022;2022-12-07T09:56:40;4.40;99.90
9762;DHT22;4920;49.594;11.022;2022-12-07T09:59:15;4.40;99.90
9762;DHT22;4920;49.594;11.022;2022-12-07T10:01:49;4.40;99.90
9762;DHT22;4920;49.594;11.022;2022-12-07T10:04:22;4.50;99.90
9762;DHT22;4920;49.594;11.022;2022-12-07T10:06:52;4.50;99.90
9762;DHT22;4920;49.594;11.022;2022-12-07T10:09:21;4.60;99.90
9762;DHT22;4920;49.594;11.022;2022-12-07T10:12:00;4.60;99.90
9762;DHT22;4920;49.594;11.022;2022-12-07T10:14:32;4.60;99.90
9762;DHT22;4920;49.594;11.022;2022-12-07T10:17:38;4.60;99.90
9762;DHT22;4920;49.594;11.022;2022-12-07T10:20:18;4.60;99.90
9762;DHT22;4920;49.594;11.022;2022-12-07T10:23:01;4.60;99.90
9762;DHT22;4920;49.594;11.022;2022-12-07T10:25:33;4.60;99.90
9762;DHT22;4920;49.594;11.022;2022-12-07T10:28:11;4.60;99.90
9762;DHT22;4920;49.594;11.022;2022-12-07T10:30:52;4.60;99.90
9762;DHT22;4920;49.594;11.022;2022-12-07T10:33:33;4.70;99.90
9762;DHT22;4920;49.594;11.022;2022-12-07T10:36:22;4.70;99.90
9762;DHT22;4920;49.594;11.022;2022-12-07T10:38:53;4.70;99.90
9762;DHT22;4920;49.594;11.022;2022-12-07T10:41:27;4.70;99.90
9762;DHT22;4920;49.594;11.022;2022-12-07T10:43:57;4.70;99.90
9762;DHT22;4920;49.594;11.022;2022-12-07T10:47:01;4.70;99.90
9762;DHT22;4920;49.594;11.022;2022-12-07T10:55:56;4.60;99.90
9762;DHT22;4920;49.594;11.022;2022-12-07T10:58:45;4.60;99.90
9762;DHT22;4920;49.594;11.022;2022-12-07T11:01:23;4.60;99.90
9762;DHT22;4920;49.594;11.022;2022-12-07T11:04:15;4.60;99.90
9762;DHT22;4920;49.594;11.022;2022-12-07T11:06:53;4.60;99.90
9762;DHT22;4920;49.594;11.022;2022-12-07T11:12:50;4.70;99.90
9762;DHT22;4920;49.594;11.022;2022-12-07T11:15:26;4.80;99.90
9762;DHT22;4920;49.594;11.022;2022-12-07T11:18:02;4.90;99.90
9762;DHT22;4920;49.594;11.022;2022-12-07T11:20:41;4.90;99.90
9762;DHT22;4920;49.594;11.022;2022-12-07T11:23:18;5.00;99.90
9762;DHT22;4920;49.594;11.022;2022-12-07T11:25:54;5.00;99.90
9762;DHT22;4920;49.594;11.022;2022-12-07T11:28:50;5.00;99.90
9762;DHT22;4920;49.594;11.022;2022-12-07T11:31:28;5.00;99.90
9762;DHT22;4920;49.594;11.022;2022-12-07T11:34:03;5.00;99.90
9762;DHT22;4920;49.594;11.022;2022-12-07T11:36:38;5.00;99.90
9762;DHT22;4920;49.594;11.022;2022-12-07T11:39:16;4.90;99.90
9762;DHT22;4920;49.594;11.022;2022-12-07T11:41:52;5.00;99.90
9762;DHT22;4920;49.594;11.022;2022-12-07T11:44:32;5.00;99.90
9762;DHT22;4920;49.594;11.022;2022-12-07T11:47:06;5.00;99.90
9762;DHT22;4920;49.594;11.022;2022-12-07T11:49:42;5.00;99.90
9762;DHT22;4920;49.594;11.022;2022-12-07T11:52:18;5.00;99.90
9762;DHT22;4920;49.594;11.022;2022-12-07T11:54:51;4.90;99.90
9762;DHT22;4920;49.594;11.022;2022-12-07T11:57:25;5.00;99.90
9762;DHT22;4920;49.594;11.022;2022-12-07T12:00:03;4.90;99.90
9762;DHT22;4920;49.594;11.022;2022-12-07T12:02:36;4.90;99.90
9762;DHT22;4920;49.594;11.022;2022-12-07T12:05:15;4.90;99.90
9762;DHT22;4920;49.594;11.022;2022-12-07T12:07:46;4.90;99.90
9762;DHT22;4920;49.594;11.022;2022-12-07T12:10:45;4.90;99.90
9762;DHT22;4920;49.594;11.022;2022-12-07T12:13:50;4.90;99.90
9762;DHT22;4920;49.594;11.022;2022-12-07T12:20:00;4.90;99.90
9762;DHT22;4920;49.594;11.022;2022-12-07T12:22:35;4.90;99.90
9762;DHT22;4920;49.594;11.022;2022-12-07T12:25:06;4.90;99.90
9762;DHT22;4920;49.594;11.022;2022-12-07T12:27:37;4.80;99.90
9762;DHT22;4920;49.594;11.022;2022-12-07T12:30:30;4.80;99.90
9762;DHT22;4920;49.594;11.022;2022-12-07T12:33:16;4.90;99.90
9762;DHT22;4920;49.594;11.022;2022-12-07T12:36:17;4.90;99.90
9762;DHT22;4920;49.594;11.022;2022-12-07T12:38:49;4.90;99.90
9762;DHT22;4920;49.594;11.022;2022-12-07T12:47:57;4.90;99.90
9762;DHT22;4920;49.594;11.022;2022-12-07T12:50:32;4.90;99.90
9762;DHT22;4920;49.594;11.022;2022-12-07T12:53:20;4.90;99.90
9762;DHT22;4920;49.594;11.022;2022-12-07T12:56:10;5.00;99.90
9762;DHT22;4920;49.594;11.022;2022-12-07T12:58:44;5.00;99.90
9762;DHT22;4920;49.594;11.022;2022-12-07T13:01:46;5.00;99.90
9762;DHT22;4920;49.594;11.022;2022-12-07T13:04:27;4.90;99.90
9762;DHT22;4920;49.594;11.022;2022-12-07T13:06:58;5.00;99.90
9762;DHT22;4920;49.594;11.022;2022-12-07T13:09:29;5.00;99.90
9762;DHT22;4920;49.594;11.022;2022-12-07T13:12:02;5.10;99.90
9762;DHT22;4920;49.594;11.022;2022-12-07T13:14:43;5.10;99.90
9762;DHT22;4920;49.594;11.022;2022-12-07T13:17:57;5.10;99.90
9762;DHT22;4920;49.594;11.022;2022-12-07T13:20:48;5.10;99.90
9762;DHT22;4920;49.594;11.022;2022-12-07T13:23:22;5.10;99.90
9762;DHT22;4920;49.594;11.022;2022-12-07T13:25:55;5.10;99.90
9762;DHT22;4920;49.594;11.022;2022-12-07T13:28:33;5.10;99.90
9762;DHT22;4920;49.594;11.022;2022-12-07T13:31:31;5.10;99.90
9762;DHT22;4920;49.594;11.022;2022-12-07T13:34:01;5.10;99.90
9762;DHT22;4920;49.594;11.022;2022-12-07T13:36:33;5.10;99.90
9762;DHT22;4920;49.594;11.022;2022-12-07T13:39:19;5.10;99.90
9762;DHT22;4920;49.594;11.022;2022-12-07T13:41:51;5.10;99.90
9762;DHT22;4920;49.594;11.022;2022-12-07T13:44:20;5.10;99.90
9762;DHT22;4920;49.594;11.022;2022-12-07T13:46:57;5.10;99.90
9762;DHT22;4920;49.594;11.022;2022-12-07T13:49:29;5.10;99.90
9762;DHT22;4920;49.594;11.022;2022-12-07T13:52:14;5.20;99.90
9762;DHT22;4920;49.594;11.022;2022-12-07T13:54:46;5.10;99.90
9762;DHT22;4920;49.594;11.022;2022-12-07T13:57:16;5.10;99.90
9762;DHT22;4920;49.594;11.022;2022-12-07T13:59:45;5.10;99.90
9762;DHT22;4920;49.594;11.022;2022-12-07T14:02:22;5.10;99.90
9762;DHT22;4920;49.594;11.022;2022-12-07T14:05:07;5.00;99.90
9762;DHT22;4920;49.594;11.022;2022-12-07T14:07:49;5.00;99.90
9762;DHT22;4920;49.594;11.022;2022-12-07T14:10:27;5.00;99.90
9762;DHT22;4920;49.594;11.022;2022-12-07T14:12:57;5.00;99.90
9762;DHT22;4920;49.594;11.022;2022-12-07T14:15:28;5.00;99.90
9762;DHT22;4920;49.594;11.022;2022-12-07T14:17:58;5.00;99.90
9762;DHT22;4920;49.594;11.022;2022-12-07T14:20:32;5.00;99.90
9762;DHT22;4920;49.594;11.022;2022-12-07T14:23:02;4.90;99.90
9762;DHT22;4920;49.594;11.022;2022-12-07T14:25:47;4.90;99.90
9762;DHT22;4920;49.594;11.022;2022-12-07T14:28:28;4.90;99.90
9762;DHT22;4920;49.594;11.022;2022-12-07T14:30:57;4.90;99.90
9762;DHT22;4920;49.594;11.022;2022-12-07T14:33:27;4.90;99.90
9762;DHT22;4920;49.594;11.022;2022-12-07T14:35:56;4.90;99.90
9762;DHT22;4920;49.594;11.022;2022-12-07T14:38:25;4.90;99.90
9762;DHT22;4920;49.594;11.022;2022-12-07T14:40:56;4.90;99.90
9762;DHT22;4920;49.594;11.022;2022-12-07T14:43:46;4.90;99.90
9762;DHT22;4920;49.594;11.022;2022-12-07T14:46:35;4.90;99.90
9762;DHT22;4920;49.594;11.022;2022-12-07T14:49:04;4.80;99.90
9762;DHT22;4920;49.594;11.022;2022-12-07T14:51:53;4.70;99.90
9762;DHT22;4920;49.594;11.022;2022-12-07T14:54:42;4.70;99.90
9762;DHT22;4920;49.594;11.022;2022-12-07T14:57:12;4.60;99.90
9762;DHT22;4920;49.594;11.022;2022-12-07T14:59:41;4.50;99.90
9762;DHT22;4920;49.594;11.022;2022-12-07T15:02:14;4.40;99.90
9762;DHT22;4920;49.594;11.022;2022-12-07T15:04:43;4.30;99.90
9762;DHT22;4920;49.594;11.022;2022-12-07T15:07:17;4.30;99.90
9762;DHT22;4920;49.594;11.022;2022-12-07T15:09:47;4.20;99.90
9762;DHT22;4920;49.594;11.022;2022-12-07T15:12:17;4.20;99.90
9762;DHT22;4920;49.594;11.022;2022-12-07T15:14:46;4.10;99.90
9762;DHT22;4920;49.594;11.022;2022-12-07T15:17:14;4.10;99.90
9762;DHT22;4920;49.594;11.022;2022-12-07T15:19:58;4.10;99.90
9762;DHT22;4920;49.594;11.022;2022-12-07T15:22:26;4.00;99.90
9762;DHT22;4920;49.594;11.022;2022-12-07T15:25:04;4.00;99.90
9762;DHT22;4920;49.594;11.022;2022-12-07T15:27:35;4.00;99.90
9762;DHT22;4920;49.594;11.022;2022-12-07T15:30:05;4.00;99.90
9762;DHT22;4920;49.594;11.022;2022-12-07T15:32:33;4.00;99.90
9762;DHT22;4920;49.594;11.022;2022-12-07T15:35:03;4.00;99.90
9762;DHT22;4920;49.594;11.022;2022-12-07T15:37:32;4.00;99.90
9762;DHT22;4920;49.594;11.022;2022-12-07T15:40:01;4.00;99.90
9762;DHT22;4920;49.594;11.022;2022-12-07T15:42:36;3.90;99.90
9762;DHT22;4920;49.594;11.022;2022-12-07T15:45:07;3.90;99.90
9762;DHT22;4920;49.594;11.022;2022-12-07T15:47:36;3.80;99.90
9762;DHT22;4920;49.594;11.022;2022-12-07T15:50:25;3.80;99.90
9762;DHT22;4920;49.594;11.022;2022-12-07T15:52:54;3.80;99.90
9762;DHT22;4920;49.594;11.022;2022-12-07T15:55:23;3.80;99.90
9762;DHT22;4920;49.594;11.022;2022-12-07T15:57:53;3.80;99.90
9762;DHT22;4920;49.594;11.022;2022-12-07T16:00:22;3.70;99.90
9762;DHT22;4920;49.594;11.022;2022-12-07T16:02:51;3.70;99.90
9762;DHT22;4920;49.594;11.022;2022-12-07T16:05:19;3.70;99.90
9762;DHT22;4920;49.594;11.022;2022-12-07T16:07:48;3.60;99.90
9762;DHT22;4920;49.594;11.022;2022-12-07T16:10:17;3.60;99.90
9762;DHT22;4920;49.594;11.022;2022-12-07T16:12:48;3.60;99.90
9762;DHT22;4920;49.594;11.022;2022-12-07T16:15:18;3.60;99.90
9762;DHT22;4920;49.594;11.022;2022-12-07T16:17:50;3.60;99.90
9762;DHT22;4920;49.594;11.022;2022-12-07T16:20:19;3.60;99.90
9762;DHT22;4920;49.594;11.022;2022-12-07T16:22:51;3.60;99.90
9762;DHT22;4920;49.594;11.022;2022-12-07T16:25:21;3.60;99.90
9762;DHT22;4920;49.594;11.022;2022-12-07T16:27:50;3.60;99.90
9762;DHT22;4920;49.594;11.022;2022-12-07T16:30:21;3.70;99.90
9762;DHT22;4920;49.594;11.022;2022-12-07T16:32:49;3.60;99.90
9762;DHT22;4920;49.594;11.022;2022-12-07T16:35:18;3.60;99.90
9762;DHT22;4920;49.594;11.022;2022-12-07T16:37:47;3.60;99.90
9762;DHT22;4920;49.594;11.022;2022-12-07T16:40:16;3.60;99.90
9762;DHT22;4920;49.594;11.022;2022-12-07T16:42:44;3.60;99.90
9762;DHT22;4920;49.594;11.022;2022-12-07T16:45:13;3.60;99.90
9762;DHT22;4920;49.594;11.022;2022-12-07T16:47:48;3.60;99.90
9762;DHT22;4920;49.594;11.022;2022-12-07T16:50:17;3.60;99.90
9762;DHT22;4920;49.594;11.022;2022-12-07T16:52:45;3.60;99.90
9762;DHT22;4920;49.594;11.022;2022-12-07T16:55:14;3.70;99.90
9762;DHT22;4920;49.594;11.022;2022-12-07T16:57:43;3.70;99.90
9762;DHT22;4920;49.594;11.022;2022-12-07T17:00:12;3.70;99.90
9762;DHT22;4920;49.594;11.022;2022-12-07T17:02:43;3.80;99.90